createdAt,value
2022-12-18T00:01:32.340Z,86.39
2022-12-18T00:04:00.316Z,86.25
2022-12-18T00:06:29.837Z,87.10
2022-12-18T00:08:58.937Z,86.56
2022-12-18T00:11:30.625Z,87.09
2022-12-18T00:13:59.484Z,87.39
2022-12-18T00:16:28.474Z,87.88
2022-12-18T00:18:57.723Z,87.60
2022-12-18T00:21:24.461Z,87.52
2022-12-18T00:23:51.971Z,87.46
2022-12-18T00:26:31.516Z,88.15
2022-12-18T00:29:05.862Z,87.92
2022-12-18T00:31:33.283Z,87.82
2022-12-18T00:34:05.889Z,87.58
2022-12-18T00:36:35.478Z,88.00
2022-12-18T00:39:05.842Z,88.34
2022-12-18T00:41:52.152Z,88.30
2022-12-18T00:44:20.074Z,88.25
2022-12-18T00:46:48.479Z,88.22
2022-12-18T00:49:19.991Z,87.82
2022-12-18T00:51:47.279Z,88.44
2022-12-18T00:54:14.171Z,88.63
2022-12-18T00:56:48.286Z,88.79
2022-12-18T00:59:19.759Z,88.52
2022-12-18T01:01:47.996Z,88.37
2022-12-18T01:04:20.875Z,88.96
2022-12-18T01:06:47.623Z,89.15
2022-12-18T01:09:14.465Z,89.35
2022-12-18T01:11:41.441Z,89.03
2022-12-18T01:14:08.518Z,89.41
2022-12-18T01:16:35.375Z,89.64
2022-12-18T01:19:02.156Z,89.79
2022-12-18T01:21:29.100Z,89.75
2022-12-18T01:24:03.233Z,89.79
2022-12-18T01:26:30.674Z,89.97
2022-12-18T01:28:58.580Z,90.08
2022-12-18T01:31:32.481Z,90.50
2022-12-18T01:34:02.792Z,90.60
2022-12-18T01:36:36.009Z,90.42
2022-12-18T01:39:12.031Z,90.66
2022-12-18T01:41:57.863Z,90.60
2022-12-18T01:45:10.847Z,90.38
2022-12-18T01:47:49.446Z,90.29
2022-12-18T01:50:20.519Z,91.01
2022-12-18T01:52:54.201Z,90.88
2022-12-18T01:55:28.036Z,91.39
2022-12-18T01:57:59.280Z,91.07
2022-12-18T02:00:27.805Z,90.82
2022-12-18T02:02:55.487Z,91.04
2022-12-18T02:05:52.224Z,91.08
2022-12-18T02:08:33.941Z,91.23
2022-12-18T02:11:57.575Z,91.63
2022-12-18T02:14:39.677Z,91.56
2022-12-18T02:17:18.859Z,92.24
2022-12-18T02:20:06.906Z,92.42
2022-12-18T02:23:16.369Z,92.46
2022-12-18T02:26:09.237Z,92.50
2022-12-18T02:28:52.887Z,92.54
2022-12-18T02:31:27.300Z,92.50
2022-12-18T02:33:57.814Z,92.40
2022-12-18T02:36:26.110Z,92.25
2022-12-18T02:38:54.691Z,92.87
2022-12-18T02:41:23.037Z,93.01
2022-12-18T02:43:56.449Z,92.93
2022-12-18T02:46:38.217Z,93.41
2022-12-18T02:49:15.639Z,93.78
2022-12-18T02:51:57.728Z,93.78
2022-12-18T02:54:37.438Z,93.34
2022-12-18T02:57:51.317Z,93.21
2022-12-18T03:00:30.313Z,93.44
2022-12-18T03:03:52.247Z,93.66
2022-12-18T03:06:28.128Z,93.61
2022-12-18T03:09:08.441Z,93.47
2022-12-18T03:12:01.557Z,93.73
2022-12-18T03:14:32.224Z,94.21
2022-12-18T03:17:04.019Z,94.47
2022-12-18T03:19:34.416Z,94.47
2022-12-18T03:22:04.792Z,94.39
2022-12-18T03:24:34.455Z,94.45
2022-12-18T03:27:12.971Z,94.42
2022-12-18T03:29:44.908Z,94.65
2022-12-18T03:32:28.241Z,95.29
2022-12-18T03:35:02.425Z,95.20
2022-12-18T03:37:29.261Z,95.05
2022-12-18T03:39:56.055Z,95.31
2022-12-18T03:42:30.721Z,95.53
2022-12-18T03:45:06.293Z,95.78
2022-12-18T03:48:17.561Z,96.11
2022-12-18T03:51:01.999Z,96.36
2022-12-18T03:53:53.008Z,96.34
2022-12-18T03:56:22.259Z,96.43
2022-12-18T03:58:50.086Z,96.77
2022-12-18T04:01:19.100Z,96.32
2022-12-18T04:03:48.163Z,96.02
2022-12-18T04:06:16.187Z,96.32
2022-12-18T04:08:43.716Z,96.67
2022-12-18T04:11:10.529Z,96.90
2022-12-18T04:13:40.045Z,97.19
2022-12-18T04:16:07.889Z,97.21
2022-12-18T04:18:36.231Z,97.21
2022-12-18T04:21:03.960Z,97.40
2022-12-18T04:23:30.727Z,97.14
2022-12-18T04:25:57.508Z,97.23
2022-12-18T04:28:24.212Z,97.31
2022-12-18T04:30:51.148Z,97.45
2022-12-18T04:33:17.948Z,97.16
2022-12-18T04:35:44.960Z,96.94
2022-12-18T04:38:11.901Z,97.02
2022-12-18T04:40:39.387Z,97.18
2022-12-18T04:43:07.935Z,97.19
2022-12-18T04:45:35.189Z,97.11
2022-12-18T04:48:03.512Z,97.08
2022-12-18T04:50:31.585Z,97.11
2022-12-18T04:52:59.849Z,97.13
2022-12-18T04:55:27.119Z,97.10
2022-12-18T04:57:54.115Z,96.91
2022-12-18T05:00:21.551Z,97.23
2022-12-18T05:02:48.440Z,97.08
2022-12-18T05:05:15.920Z,97.39
2022-12-18T05:07:42.712Z,97.33
2022-12-18T05:10:10.218Z,97.30
2022-12-18T05:12:57.405Z,97.12
2022-12-18T05:15:24.151Z,97.14
2022-12-18T05:17:50.935Z,96.87
2022-12-18T05:20:19.210Z,97.05
2022-12-18T05:22:46.105Z,97.14
2022-12-18T05:25:12.874Z,97.16
2022-12-18T05:27:39.612Z,97.22
2022-12-18T05:30:07.187Z,97.29
2022-12-18T05:32:33.912Z,97.15
2022-12-18T05:35:00.666Z,97.38
2022-12-18T05:37:27.438Z,97.30
2022-12-18T05:39:54.164Z,97.68
2022-12-18T05:42:20.922Z,97.72
2022-12-18T05:44:47.626Z,97.80
2022-12-18T05:47:14.442Z,97.68
2022-12-18T05:52:10.032Z,98.09
2022-12-18T05:54:36.758Z,98.17
2022-12-18T05:57:03.592Z,97.86
2022-12-18T05:59:30.322Z,98.43
2022-12-18T06:01:57.163Z,98.13
2022-12-18T06:04:24.044Z,98.27
2022-12-18T06:06:50.803Z,98.40
2022-12-18T06:09:17.521Z,98.87
2022-12-18T06:11:44.397Z,99.01
2022-12-18T06:14:11.202Z,98.47
2022-12-18T06:16:38.020Z,98.39
2022-12-18T06:19:06.884Z,98.46
2022-12-18T06:21:35.533Z,98.38
2022-12-18T06:24:03.085Z,98.53
2022-12-18T06:26:29.828Z,98.41
2022-12-18T06:28:56.945Z,98.51
2022-12-18T06:31:24.222Z,98.57
2022-12-18T06:33:51.333Z,98.68
2022-12-18T06:36:18.570Z,98.52
2022-12-18T06:38:48.297Z,98.40
2022-12-18T06:41:20.887Z,98.00
2022-12-18T06:43:48.077Z,98.00
2022-12-18T06:46:15.026Z,98.09
2022-12-18T06:48:41.876Z,98.21
2022-12-18T06:51:08.814Z,98.16
2022-12-18T06:53:38.375Z,98.42
2022-12-18T06:56:10.552Z,98.49
2022-12-18T06:58:38.624Z,98.44
2022-12-18T07:01:10.175Z,98.43
2022-12-18T07:03:38.925Z,98.26
2022-12-18T07:06:06.353Z,98.40
2022-12-18T07:08:33.693Z,98.21
2022-12-18T07:11:00.648Z,98.16
2022-12-18T07:13:27.820Z,97.95
2022-12-18T07:15:54.628Z,97.73
2022-12-18T07:18:21.440Z,97.67
2022-12-18T07:20:48.171Z,98.13
2022-12-18T07:23:15.774Z,98.24
2022-12-18T07:25:42.546Z,98.16
2022-12-18T07:28:14.154Z,98.29
2022-12-18T07:30:43.850Z,97.92
2022-12-18T07:33:10.574Z,98.06
2022-12-18T07:35:38.475Z,98.28
2022-12-18T07:38:05.241Z,97.95
2022-12-18T07:40:31.953Z,97.81
2022-12-18T07:42:58.764Z,97.74
2022-12-18T07:45:25.576Z,97.24
2022-12-18T07:47:52.369Z,97.37
2022-12-18T07:50:19.201Z,97.83
2022-12-18T07:52:46.026Z,97.70
2022-12-18T07:55:12.752Z,97.85
2022-12-18T07:57:50.435Z,97.99
2022-12-18T08:00:19.021Z,98.23
2022-12-18T08:02:45.839Z,97.84
2022-12-18T08:05:12.841Z,97.93
2022-12-18T08:07:39.935Z,97.83
2022-12-18T08:10:08.046Z,97.31
2022-12-18T08:12:34.781Z,96.66
2022-12-18T08:15:01.958Z,97.07
2022-12-18T08:17:28.730Z,97.30
2022-12-18T08:19:55.461Z,97.04
2022-12-18T08:22:22.249Z,96.83
2022-12-18T08:24:49.029Z,96.92
2022-12-18T08:27:31.222Z,97.30
2022-12-18T08:29:58.849Z,96.75
2022-12-18T08:32:28.440Z,96.55
2022-12-18T08:34:55.262Z,96.65
2022-12-18T08:37:22.040Z,97.04
2022-12-18T08:39:48.796Z,96.74
2022-12-18T08:42:33.984Z,96.88
2022-12-18T08:45:00.759Z,96.87
2022-12-18T08:47:27.505Z,96.76
2022-12-18T08:49:54.365Z,96.82
2022-12-18T08:52:21.137Z,96.46
2022-12-18T08:54:47.911Z,96.40
2022-12-18T08:57:14.678Z,96.29
2022-12-18T08:59:41.417Z,96.12
2022-12-18T09:02:12.556Z,96.20
2022-12-18T09:04:41.004Z,96.04
2022-12-18T09:07:07.813Z,95.67
2022-12-18T09:09:34.553Z,95.74
2022-12-18T09:12:01.267Z,94.83
2022-12-18T09:14:28.000Z,94.30
2022-12-18T09:16:54.789Z,94.69
2022-12-18T09:19:21.553Z,95.33
2022-12-18T09:21:48.705Z,95.70
2022-12-18T09:24:16.432Z,95.94
2022-12-18T09:26:46.822Z,95.63
2022-12-18T09:29:15.611Z,95.50
2022-12-18T09:31:43.274Z,95.35
2022-12-18T09:34:10.033Z,94.22
2022-12-18T09:36:36.897Z,94.41
2022-12-18T09:39:08.288Z,94.70
2022-12-18T09:41:54.776Z,94.42
2022-12-18T09:44:51.994Z,94.51
2022-12-18T09:47:29.363Z,94.36
2022-12-18T09:50:04.005Z,93.84
2022-12-18T09:52:49.772Z,93.46
2022-12-18T09:55:40.615Z,93.79
2022-12-18T09:58:31.504Z,92.97
2022-12-18T10:00:58.473Z,93.28
2022-12-18T10:03:25.484Z,92.38
2022-12-18T10:06:10.090Z,93.34
2022-12-18T10:09:14.264Z,92.88
2022-12-18T10:12:24.902Z,92.46
2022-12-18T10:15:13.653Z,92.52
2022-12-18T10:17:51.284Z,92.28
2022-12-18T10:20:47.986Z,91.29
2022-12-18T10:23:39.179Z,90.93
2022-12-18T10:26:14.256Z,91.10
2022-12-18T10:28:43.120Z,91.32
2022-12-18T10:31:24.740Z,91.09
2022-12-18T10:33:52.531Z,90.19
2022-12-18T10:36:19.693Z,90.49
2022-12-18T10:38:46.586Z,90.27
2022-12-18T10:41:24.247Z,90.46
2022-12-18T10:44:19.027Z,90.63
2022-12-18T10:46:57.185Z,89.74
2022-12-18T10:49:28.746Z,90.10
2022-12-18T10:52:24.148Z,89.84
2022-12-18T10:54:59.503Z,89.87
2022-12-18T10:57:46.422Z,89.39
2022-12-18T11:00:30.255Z,89.23
2022-12-18T11:02:58.875Z,89.09
2022-12-18T11:05:35.115Z,89.29
2022-12-18T11:08:02.271Z,88.87
2022-12-18T11:10:41.119Z,88.88
2022-12-18T11:13:31.294Z,89.10
2022-12-18T11:15:59.009Z,89.26
2022-12-18T11:18:33.444Z,89.03
2022-12-18T11:21:10.582Z,88.87
2022-12-18T11:23:48.347Z,88.73
2022-12-18T11:26:15.483Z,88.32
2022-12-18T11:28:48.747Z,88.13
2022-12-18T11:31:20.252Z,88.05
2022-12-18T11:34:31.200Z,88.11
2022-12-18T11:37:00.887Z,86.83
2022-12-18T11:39:38.253Z,87.42
2022-12-18T11:42:22.967Z,88.33
2022-12-18T11:44:57.353Z,88.42
2022-12-18T11:47:41.836Z,87.98
2022-12-18T11:50:23.330Z,88.55
2022-12-18T11:52:55.921Z,88.26
2022-12-18T11:55:51.038Z,87.62
2022-12-18T11:58:49.203Z,88.07
2022-12-18T12:01:24.651Z,87.53
2022-12-18T12:04:04.139Z,88.30
2022-12-18T12:07:04.480Z,88.58
2022-12-18T12:10:19.664Z,88.56
2022-12-18T12:13:19.946Z,88.54
2022-12-18T12:16:17.431Z,88.08
2022-12-18T12:19:27.095Z,88.13
2022-12-18T12:22:15.210Z,88.84
2022-12-18T12:24:53.189Z,88.67
2022-12-18T12:27:41.029Z,88.39
2022-12-18T12:30:10.276Z,88.84
2022-12-18T12:32:58.781Z,88.50
2022-12-18T12:35:49.854Z,88.55
2022-12-18T12:38:35.366Z,88.57
2022-12-18T12:41:30.683Z,87.90
2022-12-18T12:44:02.636Z,88.79
2022-12-18T12:46:35.294Z,89.06
2022-12-18T12:49:11.248Z,88.15
2022-12-18T12:51:42.608Z,88.50
2022-12-18T12:54:25.990Z,88.60
2022-12-18T12:57:17.633Z,89.11
2022-12-18T12:59:53.980Z,88.91
2022-12-18T13:02:44.998Z,88.86
2022-12-18T13:05:19.074Z,89.02
2022-12-18T13:08:11.732Z,88.93
2022-12-18T13:10:40.649Z,88.90
2022-12-18T13:13:16.550Z,88.78
2022-12-18T13:16:08.571Z,88.63
2022-12-18T13:18:35.757Z,88.87
2022-12-18T13:21:32.307Z,88.66
2022-12-18T13:24:28.180Z,89.04
2022-12-18T13:26:55.281Z,89.12
2022-12-18T13:29:45.809Z,89.19
2022-12-18T13:32:30.511Z,89.44
2022-12-18T13:35:29.511Z,89.67
2022-12-18T13:37:56.675Z,90.24
2022-12-18T13:40:48.335Z,89.81
2022-12-18T13:43:20.823Z,89.87
2022-12-18T13:46:03.157Z,90.23
2022-12-18T13:48:35.401Z,89.81
2022-12-18T13:51:10.464Z,89.41
2022-12-18T13:53:46.009Z,89.51
2022-12-18T13:56:26.476Z,89.90
2022-12-18T13:59:17.858Z,90.46
2022-12-18T14:01:57.371Z,89.77
2022-12-18T14:04:36.286Z,90.60
2022-12-18T14:07:25.017Z,90.35
2022-12-18T14:10:12.098Z,90.71
2022-12-18T14:12:57.972Z,91.12
2022-12-18T14:15:28.051Z,91.10
2022-12-18T14:18:25.484Z,90.97
2022-12-18T14:20:56.879Z,91.19
2022-12-18T14:23:41.595Z,91.00
2022-12-18T14:26:31.089Z,91.11
2022-12-18T14:29:02.063Z,91.08
2022-12-18T14:31:32.055Z,91.49
2022-12-18T14:33:58.918Z,91.46
2022-12-18T14:36:30.063Z,91.70
2022-12-18T14:38:59.626Z,91.71
2022-12-18T14:41:27.501Z,91.63
2022-12-18T14:43:55.622Z,91.79
2022-12-18T14:46:38.453Z,91.34
2022-12-18T14:49:34.071Z,92.20
2022-12-18T14:52:05.175Z,93.12
2022-12-18T14:54:33.127Z,93.43
2022-12-18T14:57:27.907Z,93.56
2022-12-18T14:59:54.673Z,93.41
2022-12-18T15:02:26.801Z,93.45
2022-12-18T15:05:12.662Z,93.31
2022-12-18T15:07:54.949Z,93.55
2022-12-18T15:10:34.222Z,93.89
2022-12-18T15:13:04.098Z,94.16
2022-12-18T15:15:43.478Z,94.05
2022-12-18T15:18:11.518Z,93.87
2022-12-18T15:20:53.301Z,94.29
2022-12-18T15:23:23.800Z,94.62
2022-12-18T15:26:04.347Z,94.77
2022-12-18T15:28:50.853Z,95.06
2022-12-18T15:31:18.102Z,95.41
2022-12-18T15:34:01.730Z,95.20
2022-12-18T15:36:28.455Z,95.17
2022-12-18T15:39:04.547Z,95.28
2022-12-18T15:41:36.919Z,95.37
2022-12-18T15:44:22.171Z,95.46
2022-12-18T15:46:48.911Z,95.48
2022-12-18T15:49:15.625Z,95.86
2022-12-18T15:51:42.580Z,95.91
2022-12-18T15:54:15.077Z,95.17
2022-12-18T15:57:00.579Z,95.78
2022-12-18T15:59:27.853Z,96.24
2022-12-18T16:01:54.696Z,96.05
2022-12-18T16:04:23.452Z,95.31
2022-12-18T16:07:13.726Z,95.44
2022-12-18T16:09:38.329Z,95.89
2022-12-18T16:12:06.497Z,96.53
2022-12-18T16:14:33.849Z,96.81
2022-12-18T16:17:04.265Z,96.40
2022-12-18T16:19:31.321Z,95.76
2022-12-18T16:21:59.603Z,95.35
2022-12-18T16:24:33.840Z,95.60
2022-12-18T16:27:01.942Z,96.28
2022-12-18T16:29:30.361Z,96.45
2022-12-18T16:32:01.658Z,96.72
2022-12-18T16:34:34.880Z,96.31
2022-12-18T16:37:08.287Z,96.07
2022-12-18T16:39:36.276Z,96.56
2022-12-18T16:42:13.692Z,96.74
2022-12-18T16:44:40.638Z,96.77
2022-12-18T16:47:10.206Z,96.41
2022-12-18T16:49:38.726Z,96.83
2022-12-18T16:52:07.051Z,96.85
2022-12-18T16:54:35.212Z,96.15
2022-12-18T16:57:02.017Z,96.22
2022-12-18T16:59:29.438Z,96.00
2022-12-18T17:01:57.565Z,96.19
2022-12-18T17:04:24.588Z,96.46
2022-12-18T17:06:54.117Z,96.79
2022-12-18T17:09:25.479Z,96.24
2022-12-18T17:11:53.949Z,96.10
2022-12-18T17:14:24.449Z,96.87
2022-12-18T17:17:19.140Z,97.40
2022-12-18T17:19:39.400Z,97.20
2022-12-18T17:22:06.169Z,97.17
2022-12-18T17:24:35.215Z,97.37
2022-12-18T17:27:03.638Z,97.24
2022-12-18T17:29:30.946Z,96.76
2022-12-18T17:31:59.277Z,96.80
2022-12-18T17:34:27.884Z,96.43
2022-12-18T17:36:55.227Z,97.15
2022-12-18T17:39:22.274Z,97.09
2022-12-18T17:41:49.593Z,97.22
2022-12-18T17:44:17.581Z,96.91
2022-12-18T17:46:44.610Z,97.42
2022-12-18T17:49:11.864Z,97.47
2022-12-18T17:51:39.029Z,97.75
2022-12-18T17:54:05.990Z,98.05
2022-12-18T17:56:33.311Z,97.88
2022-12-18T17:59:01.228Z,98.02
2022-12-18T18:01:28.755Z,98.01
2022-12-18T18:03:56.379Z,97.94
2022-12-18T18:06:24.393Z,98.06
2022-12-18T18:08:51.621Z,97.95
2022-12-18T18:11:40.680Z,97.67
2022-12-18T18:14:18.221Z,97.21
2022-12-18T18:16:49.617Z,97.18
2022-12-18T18:19:20.110Z,97.34
2022-12-18T18:21:50.598Z,97.26
2022-12-18T18:24:23.558Z,96.90
2022-12-18T18:26:51.118Z,96.91
2022-12-18T18:29:26.613Z,97.53
2022-12-18T18:31:54.750Z,97.00
2022-12-18T18:34:28.179Z,97.03
2022-12-18T18:36:55.048Z,97.29
2022-12-18T18:39:21.868Z,97.18
2022-12-18T18:41:49.056Z,97.42
2022-12-18T18:44:24.775Z,97.51
2022-12-18T18:46:57.765Z,96.73
2022-12-18T18:49:28.420Z,96.73
2022-12-18T18:51:57.012Z,97.33
2022-12-18T18:54:25.306Z,97.48
2022-12-18T18:59:38.925Z,97.51
2022-12-18T19:02:06.097Z,97.35
2022-12-18T19:04:34.154Z,97.82
2022-12-18T19:07:01.358Z,97.72
2022-12-18T19:09:29.464Z,97.61
2022-12-18T19:12:14.962Z,97.48
2022-12-18T19:14:42.237Z,97.50
2022-12-18T19:17:09.427Z,97.53
2022-12-18T19:19:36.231Z,96.87
2022-12-18T19:22:03.321Z,97.39
2022-12-18T19:24:30.109Z,97.62
2022-12-18T19:26:58.235Z,97.21
2022-12-18T19:29:25.638Z,97.36
2022-12-18T19:31:52.885Z,97.40
2022-12-18T19:34:19.746Z,97.14
2022-12-18T19:36:46.763Z,97.34
2022-12-18T19:39:18.088Z,96.98
2022-12-18T19:41:46.414Z,96.59
2022-12-18T19:44:16.336Z,96.92
2022-12-18T19:46:46.187Z,97.33
2022-12-18T19:49:18.241Z,97.31
2022-12-18T19:51:45.832Z,97.58
2022-12-18T19:54:17.363Z,97.31
2022-12-18T19:56:45.786Z,97.44
2022-12-18T19:59:13.185Z,97.05
2022-12-18T20:01:40.154Z,97.06
2022-12-18T20:04:07.199Z,96.86
2022-12-18T20:06:46.053Z,96.93
2022-12-18T20:09:12.817Z,96.24
2022-12-18T20:11:41.939Z,96.47
2022-12-18T20:14:11.067Z,97.10
2022-12-18T20:16:38.293Z,97.22
2022-12-18T20:19:05.935Z,97.26
2022-12-18T20:21:33.774Z,97.19
2022-12-18T20:24:02.161Z,97.12
2022-12-18T20:26:29.672Z,97.12
2022-12-18T20:28:56.776Z,97.30
2022-12-18T20:31:24.443Z,97.09
2022-12-18T20:33:52.259Z,96.98
2022-12-18T20:36:23.441Z,97.10
2022-12-18T20:38:57.014Z,96.92
2022-12-18T20:41:24.904Z,97.10
2022-12-18T20:43:52.024Z,96.35
2022-12-18T20:46:20.532Z,96.79
2022-12-18T20:48:48.246Z,97.15
2022-12-18T20:51:20.544Z,97.05
2022-12-18T20:53:48.155Z,97.05
2022-12-18T20:56:21.999Z,96.88
2022-12-18T20:58:50.314Z,97.38
2022-12-18T21:01:20.803Z,97.66
2022-12-18T21:03:49.004Z,97.52
2022-12-18T21:06:19.394Z,97.54
2022-12-18T21:08:46.341Z,97.38
2022-12-18T21:11:34.890Z,97.61
2022-12-18T21:14:10.745Z,97.01
2022-12-18T21:16:37.921Z,97.49
2022-12-18T21:19:04.749Z,97.33
2022-12-18T21:21:35.064Z,97.60
2022-12-18T21:24:07.165Z,97.71
2022-12-18T21:26:34.557Z,97.59
2022-12-18T21:29:05.721Z,97.63
2022-12-18T21:31:37.022Z,97.77
2022-12-18T21:34:06.193Z,97.31
2022-12-18T21:36:34.505Z,97.13
2022-12-18T21:39:01.839Z,97.07
2022-12-18T21:41:47.808Z,97.30
2022-12-18T21:44:18.423Z,97.39
2022-12-18T21:46:56.165Z,97.04
2022-12-18T21:49:27.311Z,96.93
2022-12-18T21:51:57.530Z,96.68
2022-12-18T21:54:26.362Z,96.79
2022-12-18T21:57:02.457Z,97.04
2022-12-18T21:59:38.975Z,97.09
2022-12-18T22:02:14.536Z,96.96
2022-12-18T22:04:43.130Z,96.83
2022-12-18T22:07:10.536Z,96.91
2022-12-18T22:09:38.269Z,97.28
2022-12-18T22:12:05.396Z,96.98
2022-12-18T22:14:32.325Z,96.97
2022-12-18T22:16:59.110Z,96.54
2022-12-18T22:19:26.676Z,96.34
2022-12-18T22:21:54.721Z,96.55
2022-12-18T22:24:26.680Z,96.96
2022-12-18T22:27:02.033Z,96.78
2022-12-18T22:30:04.960Z,96.40
2022-12-18T22:32:33.752Z,97.31
2022-12-18T22:35:06.198Z,97.29
2022-12-18T22:37:35.021Z,97.48
2022-12-18T22:40:03.346Z,97.30
2022-12-18T22:42:38.957Z,97.09
2022-12-18T22:45:06.296Z,97.24
2022-12-18T22:47:33.029Z,97.40
2022-12-18T22:49:59.748Z,97.40
2022-12-18T22:52:27.519Z,97.17
2022-12-18T22:54:54.557Z,96.92
2022-12-18T22:57:23.228Z,96.86
2022-12-18T22:59:51.587Z,96.36
2022-12-18T23:02:19.310Z,96.44
2022-12-18T23:04:47.852Z,96.44
2022-12-18T23:07:15.465Z,96.87
2022-12-18T23:09:42.286Z,96.71
2022-12-18T23:12:15.878Z,96.47
2022-12-18T23:14:43.199Z,97.08
2022-12-18T23:17:09.912Z,97.20
2022-12-18T23:19:37.477Z,96.85
2022-12-18T23:22:10.058Z,96.69
2022-12-18T23:24:38.427Z,96.71
2022-12-18T23:27:05.747Z,96.85
2022-12-18T23:29:38.457Z,96.53
2022-12-18T23:32:05.233Z,96.31
2022-12-18T23:34:32.168Z,96.30
2022-12-18T23:36:58.901Z,96.84
2022-12-18T23:39:30.046Z,96.74
2022-12-18T23:41:59.506Z,96.86
2022-12-18T23:44:26.548Z,96.61
2022-12-18T23:46:53.383Z,97.10
2022-12-18T23:49:20.408Z,96.84
2022-12-18T23:51:47.191Z,97.13
2022-12-18T23:54:14.081Z,97.26
2022-12-18T23:56:40.951Z,96.85
2022-12-18T23:59:07.683Z,96.69
